El Hierro > ESTACION METEOROLÓGICA Hoya del Morcillo

DATOS ACTUALES Online

Ultima actulizacion 7 minutos

13.1 ºC

Temperatura

92

Humedad (%)

908.3

Presión (mb)

0

Precipitación (mm)

5.8 SW

Viento (Km/h)

DATOS DIARIOS

Temperatura últimas 24 horas (ºC)

Humedad últimas 24 horas (%)

Presión atmosférica últimas 24 horas (mb)

Precipitaciones últimas 23 horas (mm)

Viento últimas 24 horas (Km/h)

Hora Temperatura (°C) ºC Precipitación (mm) mm Presión (mb) mb Humedad (%) % Viento (Km/h) km/h
28 - 09:00 13.8 0 908 79 10.8 S
28 - 10:00 14.7 0 908 75 4.3 NW
28 - 11:00 15.1 0 908 76 9.4 W
28 - 12:00 14.8 0 909 79 7.2 W
28 - 13:00 15.3 0 908 81 6.8 W
28 - 14:00 17.7 0 908 70 6.8 W
28 - 15:00 16.4 0 908 76 6.1 O
28 - 16:00 16.4 0 908 77 5.8 NW
28 - 17:00 16.5 0 907 70 12.2 S
28 - 18:00 16.3 0 907 75 9 W
28 - 19:00 14.7 0 908 80 9 SW
28 - 20:00 14 0 908 85 4.7 N
28 - 21:00 13.3 0 908 88 5 SO
28 - 22:00 13.2 0 908 91 15.1 SW
28 - 23:00 13.2 0 908 93 8.6 SO
29 - 00:00 12.7 0 908 92 9.4 SW
29 - 01:00 12.8 0 908 93 11.2 SW
29 - 02:00 12.7 0 907 93 9 S
29 - 03:00 12.4 0 907 92 7.6 W
29 - 04:00 12.6 0 907 91 6.1 SW
29 - 05:00 12.7 0 907 92 16.2 SW
29 - 06:00 12.4 0 907 90 4.3 NW
29 - 07:00 12.6 0 908 90 8.3 SW
29 - 08:00 12.8 0 908 95 5.4 W
29 - 09:00 13.1 0 908 92 5.8 SW
Apalmet utiliza cookies propias y de terceros para mejorar la usabilidad y la experiencia web. Política de cookies.